Time;durP1;ratioP1;P1;durP2;ratioP2;P2;SDS_P1;SDS_P2;PMS_P1;PMS_P2;Temp;Humidity;BMP_temperature;BMP_pressure;BME280_temperature;BME280_humidity;BME280_pressure;Samples;Min_cycle;Max_cycle;Signal;HPM_P1;HPM_P2
2021/11/09 00:00:34;;;;;;;6.78;2.15;;;;;;;12.92;86.62;101062.41;5063396;28;20045;-77
2021/11/09 00:03:06;;;;;;;10.23;4.03;;;;;;;12.92;86.26;101067.97;5037310;28;20079;-77
2021/11/09 00:05:33;;;;;;;;;;;;;;;12.90;86.75;101081.38;5042192;28;20488;-77
2021/11/09 00:08:03;;;;;;;8.82;2.35;;;;;;;12.93;86.47;101075.13;5041824;28;20021;-77
2021/11/09 00:10:30;;;;;;;13.77;2.65;;;;;;;12.97;86.35;101070.50;5050951;28;20052;-78
2021/11/09 00:13:02;;;;;;;8.20;2.50;;;;;;;12.98;86.49;101084.03;5056903;28;20041;-77
2021/11/09 00:15:32;;;;;;;8.45;2.33;;;;;;;13.00;86.23;101075.34;5057516;28;20033;-77
2021/11/09 00:18:01;;;;;;;10.98;1.65;;;;;;;13.00;86.21;101070.56;5032583;28;20099;-77
2021/11/09 00:20:30;;;;;;;5.88;2.10;;;;;;;13.02;86.08;101059.13;5053332;28;20457;-77
2021/11/09 00:22:57;;;;;;;12.70;2.15;;;;;;;13.03;85.88;101057.94;5052823;28;20492;-77
2021/11/09 00:25:26;;;;;;;7.80;2.00;;;;;;;13.03;86.02;101064.31;5040654;28;20044;-77
2021/11/09 00:27:53;;;;;;;7.78;2.55;;;;;;;13.03;86.03;101063.50;5056278;28;20045;-77
2021/11/09 00:30:23;;;;;;;9.95;1.95;;;;;;;13.03;85.97;101060.72;5052965;28;20049;-77
2021/11/09 00:32:50;;;;;;;4.03;1.80;;;;;;;13.02;85.98;101062.72;5060893;28;20049;-78
2021/11/09 00:35:22;;;;;;;3.95;1.42;;;;;;;13.03;86.07;101071.84;5038567;28;20502;-77
2021/11/09 00:37:50;;;;;;;10.40;1.70;;;;;;;13.04;86.10;101054.81;5054629;28;20044;-77
2021/11/09 00:40:20;;;;;;;6.28;1.70;;;;;;;13.06;85.95;101058.06;5057415;28;20036;-77
2021/11/09 00:42:47;;;;;;;12.38;1.98;;;;;;;13.08;85.86;101066.09;5054978;28;20510;-77
2021/11/09 00:45:14;;;;;;;11.60;2.72;;;;;;;13.10;85.88;101070.13;5035897;28;20075;-78
2021/11/09 00:47:42;;;;;;;6.03;1.38;;;;;;;13.12;85.80;101058.63;5040393;28;20047;-77
2021/11/09 00:50:11;;;;;;;8.85;2.20;;;;;;;13.13;85.75;101051.94;5050849;28;20063;-77
2021/11/09 00:52:38;;;;;;;5.75;1.45;;;;;;;13.18;85.60;101060.81;5056902;28;20075;-77
2021/11/09 00:55:06;;;;;;;9.25;1.85;;;;;;;13.20;85.44;101063.25;5052745;28;20041;-77
2021/11/09 00:57:33;;;;;;;5.32;1.50;;;;;;;13.22;85.37;101061.72;5035497;28;20036;-77
2021/11/09 01:00:00;;;;;;;11.90;1.33;;;;;;;13.24;85.41;101055.78;5049665;28;20049;-80
2021/11/09 01:02:27;;;;;;;7.75;1.83;;;;;;;13.27;85.30;101052.31;5054376;28;20091;-80
2021/11/09 01:04:55;;;;;;;8.80;2.58;;;;;;;13.29;85.23;101050.00;5061939;28;20053;-80
2021/11/09 01:07:22;;;;;;;11.50;1.88;;;;;;;13.32;85.36;101043.69;5054255;28;20041;-80
2021/11/09 01:09:49;;;;;;;7.93;1.55;;;;;;;13.31;85.18;101054.03;5056798;28;20102;-80
2021/11/09 01:12:16;;;;;;;11.27;3.65;;;;;;;13.33;85.08;101034.19;5054260;28;20049;-80
2021/11/09 01:14:43;;;;;;;9.60;2.08;;;;;;;13.35;85.09;101034.63;5039661;28;20040;-80
2021/11/09 01:17:10;;;;;;;6.35;1.85;;;;;;;13.35;84.78;101037.41;5058085;28;20052;-80
2021/11/09 01:19:38;;;;;;;6.57;1.70;;;;;;;13.35;84.72;101031.88;5038375;28;20119;-80
2021/11/09 01:22:06;;;;;;;4.95;1.70;;;;;;;13.34;84.74;101050.50;5039915;28;20049;-80
2021/11/09 01:24:34;;;;;;;6.85;1.75;;;;;;;13.32;84.63;101049.25;5060703;28;20068;-80
2021/11/09 01:27:01;;;;;;;9.32;1.85;;;;;;;13.29;84.70;101042.44;5057116;28;20127;-79
2021/11/09 01:29:28;;;;;;;8.13;1.83;;;;;;;13.27;84.62;101035.63;5036143;28;20045;-80
2021/11/09 01:31:56;;;;;;;4.78;1.40;;;;;;;13.25;84.79;101046.28;5059340;28;20047;-80
2021/11/09 01:34:23;;;;;;;6.00;1.55;;;;;;;13.25;84.56;101054.63;5044056;28;20053;-79
2021/11/09 01:36:50;;;;;;;12.70;2.45;;;;;;;13.26;84.62;101050.69;5058009;28;20083;-80
2021/11/09 01:39:17;;;;;;;7.47;2.00;;;;;;;13.25;84.60;101040.72;5061229;28;20045;-79
2021/11/09 01:41:44;;;;;;;9.65;2.35;;;;;;;13.27;84.57;101041.19;5054839;28;20029;-80
2021/11/09 01:44:12;;;;;;;12.77;2.00;;;;;;;13.28;84.53;101042.81;5052696;28;20056;-80
2021/11/09 01:46:39;;;;;;;7.63;2.22;;;;;;;13.28;84.73;101037.25;5037894;28;20051;-80
2021/11/09 01:49:07;;;;;;;12.80;2.67;;;;;;;13.28;84.34;101043.63;5054213;28;20132;-80
2021/11/09 01:51:36;;;;;;;10.20;2.40;;;;;;;13.30;84.48;101049.63;5052166;28;20048;-80
2021/11/09 01:54:05;;;;;;;8.75;2.05;;;;;;;13.31;84.27;101031.78;5053892;28;20683;-80
2021/11/09 01:56:32;;;;;;;10.10;1.70;;;;;;;13.33;84.03;101032.22;5056625;28;20042;-80
2021/11/09 01:58:59;;;;;;;6.60;1.42;;;;;;;13.36;84.00;101033.50;5060969;28;20527;-80
2021/11/09 02:01:28;;;;;;;6.90;1.73;;;;;;;13.35;83.93;101032.69;5051506;28;20047;-80
2021/11/09 02:03:59;;;;;;;7.38;1.80;;;;;;;13.37;83.81;101021.19;5061124;28;20415;-80
2021/11/09 02:06:26;;;;;;;8.88;2.05;;;;;;;13.38;83.63;101008.91;5036616;28;20052;-80
2021/11/09 02:09:03;;;;;;;6.28;1.55;;;;;;;13.36;83.07;101020.41;5056995;28;20040;-80
2021/11/09 02:11:30;;;;;;;7.53;1.73;;;;;;;13.38;82.96;101011.69;5063385;28;20044;-80
2021/11/09 02:13:57;;;;;;;7.60;1.15;;;;;;;13.39;82.87;101016.09;5043226;28;20418;-80
2021/11/09 02:16:24;;;;;;;4.72;1.38;;;;;;;13.41;82.76;101013.75;5020461;28;20118;-80
2021/11/09 02:18:51;;;;;;;9.73;1.98;;;;;;;13.40;82.58;101004.59;5055182;28;20064;-79
2021/11/09 02:21:19;;;;;;;6.70;2.03;;;;;;;13.42;82.48;101012.59;5058850;28;20045;-80
2021/11/09 02:23:47;;;;;;;5.72;1.00;;;;;;;13.41;82.36;101008.19;5041078;28;20102;-79
2021/11/09 02:26:17;;;;;;;4.55;1.05;;;;;;;13.41;82.36;101008.19;5059161;28;20106;-80
2021/11/09 02:28:45;;;;;;;5.97;1.58;;;;;;;13.41;82.20;101013.75;5054894;28;20040;-80
2021/11/09 02:31:12;;;;;;;8.68;1.80;;;;;;;13.42;82.02;101016.16;5057726;28;20134;-80
2021/11/09 02:33:39;;;;;;;7.82;2.28;;;;;;;13.41;81.92;101003.44;5042673;28;20064;-80
2021/11/09 02:36:07;;;;;;;5.57;0.98;;;;;;;13.43;81.71;101005.84;5039100;28;20041;-80
2021/11/09 02:38:34;;;;;;;8.05;1.30;;;;;;;13.43;81.42;100987.19;5043160;28;20036;-80
2021/11/09 02:41:02;;;;;;;5.38;0.90;;;;;;;13.43;81.43;100994.72;5062050;28;20064;-80
2021/11/09 02:43:30;;;;;;;7.85;1.85;;;;;;;13.41;81.29;100986.75;5055287;28;20409;-80
2021/11/09 02:48:46;;;;;;;8.30;1.05;;;;;;;13.36;81.11;101000.13;5036041;28;20060;-80
2021/11/09 02:51:18;;;;;;;4.65;1.15;;;;;;;13.34;81.08;100996.91;5054579;28;20052;-80
2021/11/09 02:53:54;;;;;;;8.57;0.98;;;;;;;13.31;80.53;100986.47;5058133;28;20127;-80
2021/11/09 02:57:06;;;;;;;4.47;1.08;;;;;;;13.29;81.03;100997.94;5054815;28;20045;-80
2021/11/09 03:01:52;;;;;;;3.22;0.68;;;;;;;13.25;80.78;100987.91;5057401;28;20075;-80
2021/11/09 03:07:35;;;;;;;3.50;1.10;;;;;;;13.30;80.62;100979.28;5056093;28;20159;-80
2021/11/09 03:12:22;;;;;;;7.07;1.20;;;;;;;13.36;80.36;100977.88;5055962;28;20064;-80
2021/11/09 03:14:50;;;;;;;5.82;1.00;;;;;;;13.38;80.15;100975.53;5054375;28;20124;-80
2021/11/09 03:17:20;;;;;;;6.78;0.73;;;;;;;13.40;80.13;100978.75;5047101;28;20112;-80
2021/11/09 03:19:59;;;;;;;7.05;2.25;;;;;;;13.38;79.78;100970.78;5057205;28;20076;-80
2021/11/09 03:47:14;;;;;;;5.82;1.10;;;;;;;13.42;79.87;100965.31;5053206;28;20074;-80
2021/11/09 03:49:43;;;;;;;3.63;0.88;;;;;;;13.44;79.80;100962.97;5056960;28;20121;-80
2021/11/09 03:52:20;;;;;;;3.45;0.52;;;;;;;13.42;79.70;100965.31;5049164;28;20094;-80
2021/11/09 03:54:51;;;;;;;7.68;1.02;;;;;;;13.42;79.93;100970.88;5035774;28;20046;-80
2021/11/09 03:57:30;;;;;;;5.03;1.25;;;;;;;13.42;80.06;100970.88;5048087;28;20064;-80
2021/11/09 04:02:35;;;;;;;3.90;0.70;;;;;;;13.41;80.14;100972.03;5057580;28;20719;-80
2021/11/09 04:05:06;;;;;;;8.27;0.93;;;;;;;13.40;79.96;100970.41;5055833;28;20072;-80
2021/11/09 04:07:49;;;;;;;16.17;1.48;;;;;;;13.38;79.97;100961.63;5049507;28;20044;-81
2021/11/09 04:18:49;;;;;;;1.98;0.77;;;;;;;13.28;80.64;100970.50;5022481;28;20057;-80
2021/11/09 05:09:47;;;;;;;1.48;0.60;;;;;;;13.28;84.35;100988.00;5062754;28;20080;-79
2021/11/09 05:12:14;;;;;;;1.38;0.32;;;;;;;13.26;84.74;100983.97;5044558;28;20036;-79
2021/11/09 05:14:40;;;;;;;2.75;0.63;;;;;;;13.26;85.21;100990.31;5061241;28;20641;-78
2021/11/09 05:17:07;;;;;;;2.92;0.20;;;;;;;13.25;85.23;100982.34;5041441;28;20449;-78
2021/11/09 05:19:34;;;;;;;3.88;0.47;;;;;;;13.23;85.90;100991.06;5029812;28;20068;-78
2021/11/09 05:22:02;;;;;;;5.25;0.60;;;;;;;13.21;85.89;100982.25;5043997;28;20076;-78
2021/11/09 05:24:28;;;;;;;3.28;0.35;;;;;;;13.21;86.06;100987.00;5057157;28;20556;-78
2021/11/09 05:26:55;;;;;;;1.98;0.40;;;;;;;13.19;86.48;100989.31;5043158;28;20091;-78
2021/11/09 05:29:22;;;;;;;0.32;0.30;;;;;;;13.16;86.60;100976.13;5058973;28;20485;-78
2021/11/09 05:31:56;;;;;;;1.35;0.30;;;;;;;13.17;86.78;100980.53;5066011;28;20090;-78
2021/11/09 05:34:26;;;;;;;3.22;0.20;;;;;;;13.16;86.94;100978.91;5060717;28;20056;-78
2021/11/09 05:36:53;;;;;;;5.32;1.05;;;;;;;13.16;87.04;100984.47;5059284;28;20037;-78
2021/11/09 05:39:29;;;;;;;1.60;0.20;;;;;;;13.18;87.03;100976.59;5058838;28;20040;-78
2021/11/09 05:41:57;;;;;;;1.58;0.30;;;;;;;13.17;87.66;100986.09;5054096;28;20129;-78
2021/11/09 05:44:24;;;;;;;1.98;0.10;;;;;;;13.18;87.59;100982.97;5058128;28;20503;-78
2021/11/09 05:46:51;;;;;;;1.98;0.20;;;;;;;13.16;87.31;100979.72;5058890;28;20036;-78
2021/11/09 05:49:18;;;;;;;1.20;0.08;;;;;;;13.17;87.24;100991.66;5041600;28;20468;-78
2021/11/09 05:51:44;;;;;;;0.20;0.00;;;;;;;13.17;87.47;100983.31;5041282;28;20092;-78
2021/11/09 05:54:12;;;;;;;1.83;0.10;;;;;;;13.16;87.52;100981.69;5059378;28;20296;-78
2021/11/09 05:56:38;;;;;;;1.20;0.10;;;;;;;13.18;87.70;100976.59;5057623;28;20126;-78
2021/11/09 05:59:05;;;;;;;0.30;0.05;;;;;;;13.20;87.43;100982.59;5056534;28;20096;-78
2021/11/09 06:01:32;;;;;;;0.00;0.00;;;;;;;13.19;87.51;100978.19;5038820;28;20068;-78
2021/11/09 06:03:59;;;;;;;0.10;0.00;;;;;;;13.18;87.41;100982.16;5059990;28;20048;-78
2021/11/09 06:06:26;;;;;;;1.92;0.10;;;;;;;13.18;87.48;100982.16;5035737;28;20127;-78
2021/11/09 06:08:53;;;;;;;0.00;0.00;;;;;;;13.15;87.63;100972.56;5052258;28;20102;-78
2021/11/09 06:11:20;;;;;;;0.43;0.00;;;;;;;13.15;87.55;100972.56;5052187;28;20071;-78
2021/11/09 06:13:47;;;;;;;1.02;0.10;;;;;;;13.14;87.60;100976.50;5060173;28;20072;-78
2021/11/09 06:16:14;;;;;;;1.55;0.10;;;;;;;13.15;87.64;100980.09;5050962;28;20075;-78
2021/11/09 06:18:43;;;;;;;0.35;0.10;;;;;;;13.14;87.68;100976.50;5038550;28;20037;-78
2021/11/09 06:21:10;;;;;;;0.00;0.00;;;;;;;13.15;87.88;100971.75;5062408;28;20065;-78
2021/11/09 06:23:36;;;;;;;0.15;0.00;;;;;;;13.17;87.87;100980.53;5054735;28;20041;-78
2021/11/09 06:26:03;;;;;;;0.03;0.03;;;;;;;13.20;87.75;100990.94;5033288;28;20065;-78
2021/11/09 06:28:31;;;;;;;0.30;0.10;;;;;;;13.21;87.73;100982.25;5055669;28;20113;-78
2021/11/09 06:30:58;;;;;;;1.20;0.20;;;;;;;13.21;87.73;100982.25;5062618;28;20075;-78
2021/11/09 06:33:25;;;;;;;2.08;0.10;;;;;;;13.23;88.13;100987.47;5057332;28;20032;-78
2021/11/09 06:35:52;;;;;;;0.10;0.00;;;;;;;13.24;87.88;100986.28;5050914;28;20128;-78
2021/11/09 06:38:20;;;;;;;0.73;0.05;;;;;;;13.24;88.08;100983.50;5056200;28;21193;-77
2021/11/09 06:40:47;;;;;;;0.30;0.10;;;;;;;13.27;88.01;100988.34;5056260;28;20155;-78
2021/11/09 06:43:14;;;;;;;0.43;0.10;;;;;;;13.28;88.22;100993.56;5058322;28;20119;-78
2021/11/09 06:45:42;;;;;;;0.15;0.00;;;;;;;13.28;88.12;100987.19;5047868;28;20045;-78
2021/11/09 06:48:10;;;;;;;0.32;0.10;;;;;;;13.28;88.07;100989.97;5054032;28;20463;-78
2021/11/09 06:50:38;;;;;;;0.30;0.10;;;;;;;13.30;87.92;100990.41;5056875;28;20186;-77
2021/11/09 06:53:05;;;;;;;0.13;0.00;;;;;;;13.30;88.01;100990.41;5063049;28;20075;-78
2021/11/09 06:55:35;;;;;;;0.20;0.10;;;;;;;13.30;88.05;100996.78;5054854;28;20138;-78
2021/11/09 06:58:02;;;;;;;1.00;0.00;;;;;;;13.30;87.95;100995.97;5053727;28;20080;-78
2021/11/09 07:00:30;;;;;;;0.20;0.10;;;;;;;13.30;87.89;101001.53;5037548;28;20150;-78
2021/11/09 07:02:57;;;;;;;0.20;0.10;;;;;;;13.29;88.10;100995.16;5039885;28;20060;-78
2021/11/09 07:05:25;;;;;;;0.80;0.10;;;;;;;13.31;88.07;101001.19;5039848;28;20090;-77
2021/11/09 07:07:52;;;;;;;1.98;0.10;;;;;;;13.31;87.99;101014.28;5052299;28;20045;-78
2021/11/09 07:10:19;;;;;;;0.47;0.20;;;;;;;13.33;88.04;101007.19;5057618;28;20064;-78
2021/11/09 07:12:47;;;;;;;0.00;0.00;;;;;;;13.32;88.14;101010.31;5056812;28;20067;-79
2021/11/09 07:15:15;;;;;;;0.63;0.15;;;;;;;13.35;87.96;101017.97;5034265;28;20096;-78
2021/11/09 07:17:43;;;;;;;0.17;0.17;;;;;;;13.35;88.18;101018.78;5038148;28;20151;-78
2021/11/09 07:20:14;;;;;;;0.90;0.10;;;;;;;13.37;88.22;101018.41;5061995;28;20036;-78
2021/11/09 07:22:42;;;;;;;0.10;0.10;;;;;;;13.37;88.23;101012.84;5057767;28;20130;-78
2021/11/09 07:25:10;;;;;;;1.67;0.10;;;;;;;13.38;88.10;101022.81;5057743;28;20048;-78
2021/11/09 07:27:39;;;;;;;0.75;0.00;;;;;;;13.38;88.27;101025.59;5055315;28;20065;-78
2021/11/09 07:30:08;;;;;;;0.00;0.00;;;;;;;13.39;88.24;101033.59;5038075;28;20068;-78
2021/11/09 07:32:36;;;;;;;0.00;0.00;;;;;;;13.41;88.21;101036.00;5017914;28;20401;-78
2021/11/09 07:35:09;;;;;;;1.45;0.20;;;;;;;13.39;88.32;101022.47;5036369;28;20075;-78
2021/11/09 07:37:36;;;;;;;0.90;0.03;;;;;;;13.42;88.30;101040.41;5052046;28;20119;-78
2021/11/09 07:40:05;;;;;;;0.75;0.08;;;;;;;13.45;88.17;101036.09;5031221;28;20054;-78
2021/11/09 07:42:33;;;;;;;0.00;0.00;;;;;;;13.47;88.15;101031.00;5052188;28;20036;-78
2021/11/09 07:45:00;;;;;;;0.15;0.10;;;;;;;13.46;88.23;101027.38;5060096;28;20142;-80
2021/11/09 07:47:27;;;;;;;0.43;0.03;;;;;;;13.48;88.32;101044.53;5042505;28;20040;-78
2021/11/09 07:49:54;;;;;;;0.00;0.00;;;;;;;13.49;88.54;101048.94;5050246;28;20099;-78
2021/11/09 07:52:21;;;;;;;0.90;0.20;;;;;;;13.49;88.55;101053.69;5049172;28;20145;-78
2021/11/09 07:54:50;;;;;;;2.22;0.20;;;;;;;13.47;88.54;101056.84;5038199;28;20067;-78
2021/11/09 07:57:17;;;;;;;0.38;0.10;;;;;;;13.47;88.61;101050.47;5060516;28;20106;-78
2021/11/09 08:00:06;;;;;;;0.43;0.10;;;;;;;13.46;88.95;101049.66;5060265;28;20032;-78
2021/11/09 08:02:57;;;;;;;0.13;0.00;;;;;;;13.47;88.69;101051.28;5043527;28;20064;-78
2021/11/09 08:05:30;;;;;;;2.20;0.45;;;;;;;13.46;88.70;101058.00;5062044;28;20062;-78
2021/11/09 08:08:05;;;;;;;2.13;0.68;;;;;;;13.46;89.09;101054.41;5059707;28;20550;-77
2021/11/09 08:10:32;;;;;;;0.73;0.20;;;;;;;13.43;89.13;101056.72;5063043;28;20056;-78
2021/11/09 08:12:59;;;;;;;0.80;0.10;;;;;;;13.42;89.32;101049.53;5055398;28;20327;-78
2021/11/09 08:15:26;;;;;;;3.38;0.20;;;;;;;13.45;89.19;101066.69;5056792;28;20530;-78
2021/11/09 08:17:53;;;;;;;0.20;0.20;;;;;;;13.43;89.55;101067.03;5060146;28;20076;-79
2021/11/09 08:20:20;;;;;;;0.28;0.17;;;;;;;13.42;89.56;101076.56;5021229;28;20493;-78
2021/11/09 08:22:47;;;;;;;2.15;0.28;;;;;;;13.43;89.61;101078.16;5032111;28;20078;-79
2021/11/09 08:25:14;;;;;;;0.30;0.10;;;;;;;13.41;89.92;101075.75;5034007;28;20540;-79
2021/11/09 08:27:41;;;;;;;1.45;0.20;;;;;;;13.41;89.92;101078.53;5050595;28;20091;-78
2021/11/09 08:30:09;;;;;;;0.43;0.32;;;;;;;13.40;89.97;101082.47;5030075;28;20145;-79
2021/11/09 08:32:36;;;;;;;0.05;0.05;;;;;;;13.42;89.88;101087.69;5052585;28;20123;-79
2021/11/09 08:35:06;;;;;;;0.57;0.20;;;;;;;13.41;90.09;101088.84;5057182;28;20036;-78
2021/11/09 08:37:34;;;;;;;1.08;0.40;;;;;;;13.42;90.07;101094.03;5039063;28;20051;-78
2021/11/09 08:40:04;;;;;;;0.30;0.30;;;;;;;13.41;90.21;101086.88;5056755;28;20040;-79
2021/11/09 08:42:38;;;;;;;0.32;0.20;;;;;;;13.42;90.34;101096.81;5061091;28;20135;-78
2021/11/09 08:45:09;;;;;;;1.20;0.20;;;;;;;13.44;90.24;101090.91;5061012;28;20067;-79
2021/11/09 08:47:41;;;;;;;1.48;0.85;;;;;;;13.44;90.29;101096.47;5040247;28;20124;-78
2021/11/09 08:50:12;;;;;;;1.77;0.40;;;;;;;13.44;90.41;101110.38;5052636;28;20595;-78
2021/11/09 08:52:40;;;;;;;1.33;0.40;;;;;;;13.42;90.57;101099.59;5056413;28;20040;-78
2021/11/09 09:05:48;;;;;;;2.03;0.47;;;;;;;13.45;90.90;101109.22;5054947;28;20071;-78
2021/11/09 09:08:15;;;;;;;0.55;0.38;;;;;;;13.46;91.12;101116.41;5058009;28;20036;-80
2021/11/09 09:10:42;;;;;;;0.85;0.40;;;;;;;13.46;91.21;101119.19;5060643;28;20037;-81
2021/11/09 09:13:09;;;;;;;0.32;0.20;;;;;;;13.49;91.27;101120.44;5059296;28;20120;-81
2021/11/09 09:15:37;;;;;;;0.47;0.47;;;;;;;13.51;91.21;101113.34;5062650;28;20087;-82
2021/11/09 09:18:05;;;;;;;0.63;0.35;;;;;;;13.52;91.11;101112.19;5056794;28;20044;-82
2021/11/09 09:20:40;;;;;;;0.98;0.68;;;;;;;13.54;91.33;101114.63;5055444;28;20133;-82
2021/11/09 09:31:56;;;;;;;0.57;0.40;;;;;;;13.63;91.01;101126.41;5001718;28;20051;-80
2021/11/09 09:59:21;;;;;;;3.73;1.20;;;;;;;13.54;92.20;101142.44;5017759;28;20085;-80
2021/11/09 10:02:12;;;;;;;1.55;0.82;;;;;;;13.50;92.25;101145.13;5059929;28;21935;-80
2021/11/09 10:04:46;;;;;;;1.73;0.52;;;;;;;13.49;92.01;101143.50;5057189;28;20044;-80
2021/11/09 10:07:25;;;;;;;0.75;0.68;;;;;;;13.47;91.87;101136.69;5043339;28;20045;-80
2021/11/09 10:09:51;;;;;;;1.60;0.40;;;;;;;13.45;91.96;101139.81;5054907;28;20082;-79
2021/11/09 10:12:34;;;;;;;1.02;0.40;;;;;;;13.46;91.48;101148.97;5056370;28;20090;-82
2021/11/09 10:15:06;;;;;;;;;;;;;;;13.40;91.58;101146.44;5060844;28;20053;-82
2021/11/09 10:17:35;;;;;;;0.45;0.25;;;;;;;13.41;91.31;101147.25;5059072;28;19929;-83
2021/11/09 10:20:17;;;;;;;0.68;0.40;;;;;;;13.46;91.24;101148.97;5056263;28;20045;-83
2021/11/09 10:22:57;;;;;;;1.52;0.40;;;;;;;13.46;91.28;101147.00;5057604;28;20060;-82
2021/11/09 10:25:25;;;;;;;1.10;0.40;;;;;;;13.50;91.14;101136.78;5056088;28;20066;-82
2021/11/09 10:27:58;;;;;;;0.40;0.32;;;;;;;13.55;90.82;101147.66;5039006;28;20073;-83
2021/11/09 10:30:49;;;;;;;0.35;0.25;;;;;;;13.54;90.28;101159.94;5042185;28;20080;-82
2021/11/09 10:33:20;;;;;;;2.22;1.25;;;;;;;13.59;90.45;101170.00;5048093;28;20029;-82
2021/11/09 10:35:48;;;;;;;0.43;0.33;;;;;;;13.58;90.15;101166.41;5054599;28;20045;-82
2021/11/09 10:38:15;;;;;;;0.22;0.20;;;;;;;13.57;90.01;101159.22;5058724;28;20044;-79
2021/11/09 10:40:46;;;;;;;1.27;0.30;;;;;;;13.54;89.78;101171.06;5058295;28;20560;-79
2021/11/09 10:43:14;;;;;;;0.85;0.35;;;;;;;13.50;89.39;101167.38;5052536;28;20076;-79
2021/11/09 10:45:41;;;;;;;1.23;0.30;;;;;;;13.47;88.91;101175.63;5052932;28;20474;-79
2021/11/09 10:48:14;;;;;;;0.50;0.50;;;;;;;13.43;88.75;101173.53;5056470;28;20579;-79
2021/11/09 10:50:44;;;;;;;3.30;1.02;;;;;;;13.42;88.60;101177.47;5041983;28;20041;-79
2021/11/09 10:56:25;;;;;;;1.83;0.95;;;;;;;13.40;87.51;101185.38;5035576;28;20155;-78
2021/11/09 10:59:04;;;;;;;2.50;2.03;;;;;;;13.38;87.77;101189.69;5058049;28;20700;-78
2021/11/09 11:04:46;;;;;;;5.13;2.97;;;;;;;13.32;87.47;101196.63;5047709;28;20037;-78
2021/11/09 11:07:14;;;;;;;3.55;3.15;;;;;;;13.27;87.53;101186.59;5052007;28;20048;-77
2021/11/09 11:09:42;;;;;;;2.95;2.75;;;;;;;13.28;87.43;101190.19;5043899;28;20106;-78
2021/11/09 11:12:10;;;;;;;2.75;2.55;;;;;;;13.29;87.44;101178.69;5054866;28;20102;-78
2021/11/09 11:14:43;;;;;;;2.00;1.80;;;;;;;13.30;86.75;101191.44;5052080;28;20056;-77
2021/11/09 11:17:11;;;;;;;;;;;;;;;13.21;85.28;101187.19;5038311;28;20467;-77
2021/11/09 11:19:45;;;;;;;2.65;2.45;;;;;;;13.22;86.71;101191.56;5035066;28;20395;-78
2021/11/09 11:22:31;;;;;;;3.30;2.50;;;;;;;13.20;86.60;101196.69;5060918;28;20108;-78
2021/11/09 11:25:00;;;;;;;3.58;3.28;;;;;;;13.12;86.40;101197.63;5049075;28;20053;-78
2021/11/09 11:27:32;;;;;;;2.50;2.30;;;;;;;13.16;86.38;101185.44;5057175;28;20065;-77
2021/11/09 11:30:00;;;;;;;1.98;1.88;;;;;;;13.17;86.45;101192.66;5037726;28;20051;-82
2021/11/09 11:32:26;;;;;;;1.70;1.60;;;;;;;13.16;86.37;101195.75;5037420;28;20048;-80
2021/11/09 11:34:54;;;;;;;3.00;2.70;;;;;;;13.13;86.27;101202.84;5051283;28;20052;-79
2021/11/09 11:37:22;;;;;;;3.08;1.73;;;;;;;13.22;86.00;101205.47;5057929;28;20041;-79
2021/11/09 11:40:04;;;;;;;1.90;1.80;;;;;;;13.28;86.27;101209.66;5054231;28;20048;-79
2021/11/09 11:42:40;;;;;;;1.67;1.40;;;;;;;13.30;85.81;101201.75;5038289;28;20150;-79
2021/11/09 11:45:08;;;;;;;2.08;1.63;;;;;;;13.33;85.74;101201.06;5062030;28;20064;-79
2021/11/09 11:47:34;;;;;;;2.13;1.77;;;;;;;13.34;85.58;101202.69;5032246;28;20562;-79
2021/11/09 11:50:08;;;;;;;4.13;1.48;;;;;;;13.29;85.28;101198.16;5038831;28;20044;-79
2021/11/09 11:52:44;;;;;;;2.45;1.48;;;;;;;13.26;84.68;101203.63;5048970;28;20122;-80
2021/11/09 11:55:23;;;;;;;1.10;1.00;;;;;;;13.25;84.60;101188.09;5055547;28;20045;-78
2021/11/09 11:57:53;;;;;;;1.33;0.73;;;;;;;13.18;84.71;101196.25;5051893;28;20068;-78
2021/11/09 12:00:28;;;;;;;1.58;0.73;;;;;;;13.12;84.47;101194.84;5050832;28;20037;-78
2021/11/09 12:02:57;;;;;;;4.65;0.63;;;;;;;13.11;84.18;101191.25;5055546;28;20059;-77
2021/11/09 12:05:35;;;;;;;2.90;0.60;;;;;;;13.09;83.64;101201.13;5037214;28;20045;-80
2021/11/09 12:08:04;;;;;;;2.10;1.02;;;;;;;13.05;83.45;101197.41;5052949;28;20542;-78
2021/11/09 12:10:52;;;;;;;1.85;0.90;;;;;;;13.03;82.23;101200.50;5049594;28;20065;-78
2021/11/09 12:13:22;;;;;;;1.45;1.35;;;;;;;13.02;83.20;101207.25;5035666;28;20055;-79
2021/11/09 12:15:55;;;;;;;1.13;0.68;;;;;;;13.02;82.73;101203.66;5053055;28;20037;-78
2021/11/09 12:18:28;;;;;;;0.47;0.40;;;;;;;13.00;82.48;101206.75;5057127;28;20409;-78
2021/11/09 12:21:04;;;;;;;1.35;0.30;;;;;;;13.00;82.29;101197.66;5046931;28;20044;-79
2021/11/09 12:23:35;;;;;;;1.48;0.65;;;;;;;12.97;82.48;101201.94;5028907;28;20033;-79
2021/11/09 12:26:57;;;;;;;1.83;0.80;;;;;;;12.98;82.14;101194.38;5039758;28;20094;-79
2021/11/09 12:29:36;;;;;;;1.60;0.52;;;;;;;13.02;82.16;101198.91;5020201;28;20078;-78
2021/11/09 12:32:42;;;;;;;2.47;0.60;;;;;;;13.04;81.88;101209.66;5049770;28;20055;-82
2021/11/09 12:35:22;;;;;;;0.50;0.45;;;;;;;13.07;82.15;101209.00;4955140;28;20050;-79
2021/11/09 12:38:01;;;;;;;2.22;0.75;;;;;;;13.07;81.97;101209.00;5042810;28;20068;-78
2021/11/09 12:40:48;;;;;;;1.45;0.73;;;;;;;13.09;82.13;101199.16;5051754;28;20094;-79
2021/11/09 12:43:17;;;;;;;2.70;0.77;;;;;;;13.13;81.86;101208.38;5050532;28;20400;-79
2021/11/09 12:45:51;;;;;;;3.75;1.70;;;;;;;13.14;81.87;101198.09;5039621;28;20073;-79
2021/11/09 12:48:30;;;;;;;2.50;0.80;;;;;;;13.13;80.75;101200.06;5063340;28;20518;-79
2021/11/09 12:51:00;;;;;;;2.50;0.90;;;;;;;13.16;81.22;101199.34;5054998;28;20044;-79
2021/11/09 12:53:28;;;;;;;2.42;0.90;;;;;;;13.21;80.94;101203.88;5033561;28;20047;-78
2021/11/09 12:56:04;;;;;;;3.33;0.73;;;;;;;13.23;80.47;101196.81;5054209;28;20049;-79
2021/11/09 12:58:44;;;;;;;8.80;0.75;;;;;;;13.23;80.41;101190.44;5021345;28;20131;-83
2021/11/09 13:07:06;;;;;;;0.80;0.43;;;;;;;13.35;77.80;101193.16;5030040;28;20057;-82
2021/11/09 13:09:45;;;;;;;2.08;0.43;;;;;;;13.36;78.26;101183.66;5057614;28;20564;-82
2021/11/09 13:12:17;;;;;;;4.65;0.80;;;;;;;13.41;78.01;101194.53;5036093;28;20040;-83
2021/11/09 13:14:49;;;;;;;3.15;0.70;;;;;;;13.48;78.45;101197.50;5015604;28;20053;-82
2021/11/09 13:17:40;;;;;;;4.10;0.60;;;;;;;13.52;77.05;101201.22;5041199;28;20071;-82
2021/11/09 13:20:35;;;;;;;1.52;0.63;;;;;;;13.53;77.54;101194.47;5059998;28;20037;-82
2021/11/09 13:23:09;;;;;;;3.40;0.75;;;;;;;13.54;77.58;101190.53;5063180;28;20050;-82
2021/11/09 13:25:48;;;;;;;3.35;0.60;;;;;;;13.57;77.40;101189.03;5048008;28;20519;-82
2021/11/09 13:28:22;;;;;;;3.67;1.02;;;;;;;13.63;77.53;101188.44;5059695;28;20051;-83
2021/11/09 13:31:02;;;;;;;2.92;1.55;;;;;;;13.66;76.48;101186.91;5064530;28;20044;-82
2021/11/09 13:33:31;;;;;;;2.25;0.80;;;;;;;13.68;77.18;101179.81;5048748;28;20044;-82
2021/11/09 13:35:58;;;;;;;4.70;1.05;;;;;;;13.78;77.00;101178.47;5063936;28;20044;-83
2021/11/09 13:38:35;;;;;;;6.22;1.10;;;;;;;13.88;76.72;101184.34;5041627;28;20484;-83
2021/11/09 13:41:20;;;;;;;3.83;1.52;;;;;;;13.89;76.01;101185.97;5057115;28;20120;-83
2021/11/09 13:43:53;;;;;;;13.77;1.70;;;;;;;13.94;75.70;101188.47;5057962;28;20119;-83
2021/11/09 13:46:26;;;;;;;4.93;2.35;;;;;;;14.08;74.44;101190.03;5028194;28;20051;-82
2021/11/09 13:48:57;;;;;;;6.18;1.80;;;;;;;14.29;74.97;101185.00;5060984;28;20068;-83
2021/11/09 13:51:27;;;;;;;2.03;1.08;;;;;;;14.36;73.42;101188.00;5044866;28;20156;-84
2021/11/09 13:53:58;;;;;;;2.38;1.10;;;;;;;14.34;73.20;101195.91;5053857;28;20064;-83
2021/11/09 13:56:28;;;;;;;13.27;2.22;;;;;;;14.19;72.89;101203.03;5063846;28;20033;-83
2021/11/09 13:58:59;;;;;;;6.15;1.48;;;;;;;13.97;71.69;101204.47;5040231;28;20088;-82
2021/11/09 14:01:56;;;;;;;9.70;2.83;;;;;;;13.90;69.31;101197.88;5039288;28;20071;-83
2021/11/09 14:17:38;;;;;;;6.43;2.20;;;;;;;14.31;71.02;101191.88;5058304;28;20040;-82
2021/11/09 14:20:16;;;;;;;5.60;1.55;;;;;;;14.44;69.06;101198.16;5054487;28;20049;-82
2021/11/09 14:22:48;;;;;;;8.00;2.45;;;;;;;14.42;69.45;101212.44;5032303;28;20103;-83
2021/11/09 14:25:18;;;;;;;19.30;5.03;;;;;;;14.47;69.16;101206.59;5022035;28;20053;-82